RJNF(METAR)
10/20 16:00
RJNF 200700Z 01014KT 9999 FEW040 21/11 Q1023 RMK A3022=
戻る
トップページへ戻る
IMOC Co,.Ltd.